Time;durP1;ratioP1;P1;durP2;ratioP2;P2;SDS_P1;SDS_P2;PMS_P1;PMS_P2;Temp;Humidity;BMP_temperature;BMP_pressure;BME280_temperature;BME280_humidity;BME280_pressure;Samples;Min_cycle;Max_cycle;Signal;HPM_P1;HPM_P2
2024/02/29 00:01:37;;;;;;;22.30;14.30;;;;;;;10.28;63.27;95046.41;4242911;27;20050;-71
2024/02/29 00:03:40;;;;;;;30.45;15.00;;;;;;;10.27;63.17;95033.50;4232714;27;20055;-70
2024/02/29 00:05:42;;;;;;;22.80;14.50;;;;;;;10.41;63.34;95027.75;4232946;27;20043;-67
2024/02/29 00:07:43;;;;;;;26.88;14.18;;;;;;;10.37;62.85;95034.28;4235509;27;20044;-68
2024/02/29 00:09:46;;;;;;;23.15;13.93;;;;;;;10.46;62.73;95036.00;4239800;27;20454;-70
2024/02/29 00:11:48;;;;;;;23.92;13.82;;;;;;;10.52;62.74;95038.00;4243702;27;20996;-71
2024/02/29 00:13:50;;;;;;;23.27;13.77;;;;;;;10.60;62.71;95035.47;4239216;27;20050;-68
2024/02/29 00:15:52;;;;;;;19.55;13.45;;;;;;;10.70;62.50;95029.31;4233173;27;20070;-69
2024/02/29 00:17:54;;;;;;;24.15;12.95;;;;;;;10.78;62.30;95030.19;4242072;27;20043;-68
2024/02/29 00:19:56;;;;;;;18.95;12.13;;;;;;;10.85;61.38;95035.66;4238415;27;20092;-68
2024/02/29 00:21:58;;;;;;;19.50;12.10;;;;;;;10.78;61.88;95037.25;4218741;28;20197;-69
2024/02/29 00:24:00;;;;;;;21.40;14.43;;;;;;;10.81;61.67;95037.75;4225774;28;20083;-69
2024/02/29 00:26:02;;;;;;;17.15;12.70;;;;;;;10.90;61.55;95035.19;4244230;27;20451;-68
2024/02/29 00:28:04;;;;;;;23.17;14.70;;;;;;;10.98;61.34;95033.44;4224727;27;20491;-69
2024/02/29 00:30:07;;;;;;;20.73;13.80;;;;;;;10.97;60.98;95029.19;4233871;27;20054;-70
2024/02/29 00:32:09;;;;;;;22.75;13.15;;;;;;;10.99;61.09;95031.66;4243029;27;20047;-70
2024/02/29 00:34:14;;;;;;;22.98;12.73;;;;;;;11.01;61.12;95033.16;4243395;27;20059;-71
2024/02/29 00:36:16;;;;;;;18.48;13.30;;;;;;;11.05;61.27;95034.47;4242018;27;20051;-70
2024/02/29 00:38:18;;;;;;;20.95;13.73;;;;;;;11.09;61.05;95039.44;4230370;27;20041;-68
2024/02/29 00:40:20;;;;;;;22.65;13.32;;;;;;;11.12;60.77;95034.72;4241281;27;20327;-68
2024/02/29 00:42:22;;;;;;;21.35;12.20;;;;;;;11.13;60.58;95036.34;4240711;27;20085;-67
2024/02/29 00:44:24;;;;;;;21.88;13.68;;;;;;;11.14;60.78;95035.38;4238199;27;20084;-67
2024/02/29 00:46:25;;;;;;;20.25;13.25;;;;;;;11.20;60.54;95039.16;4239339;27;20082;-68
2024/02/29 00:48:27;;;;;;;18.30;12.70;;;;;;;11.13;60.35;95038.16;4239464;27;20104;-69
2024/02/29 00:50:29;;;;;;;22.77;13.52;;;;;;;11.12;60.62;95033.88;4238600;27;20096;-70
2024/02/29 00:52:31;;;;;;;20.63;13.13;;;;;;;11.10;60.88;95035.81;4236534;27;20050;-70
2024/02/29 00:54:33;;;;;;;20.73;12.15;;;;;;;11.10;60.99;95036.66;4243413;27;20391;-68
2024/02/29 00:56:35;;;;;;;22.10;12.60;;;;;;;11.14;60.82;95034.53;4231859;27;20120;-69
2024/02/29 00:58:37;;;;;;;25.45;13.30;;;;;;;11.11;60.70;95035.66;4238211;27;20043;-67
2024/02/29 01:00:39;;;;;;;18.65;13.00;;;;;;;11.10;60.78;95035.81;4243558;27;20073;-69
2024/02/29 01:02:41;;;;;;;24.20;12.55;;;;;;;11.09;60.82;95034.19;4242831;27;20043;-69
2024/02/29 01:04:42;;;;;;;20.65;13.38;;;;;;;11.10;60.47;95033.19;4237384;27;20055;-68
2024/02/29 01:06:44;;;;;;;19.48;13.48;;;;;;;11.12;60.75;95036.50;4227900;27;20051;-71
2024/02/29 01:08:46;;;;;;;18.33;13.20;;;;;;;11.10;60.84;95041.06;4236579;27;20059;-69
2024/02/29 01:10:48;;;;;;;23.27;14.48;;;;;;;11.12;60.86;95039.09;4236730;27;20556;-68
2024/02/29 01:12:50;;;;;;;18.48;13.93;;;;;;;11.10;61.19;95047.16;4224889;28;20047;-70
2024/02/29 01:14:52;;;;;;;21.73;14.65;;;;;;;11.07;61.21;95053.50;4241421;27;20063;-69
2024/02/29 01:16:56;;;;;;;20.90;14.77;;;;;;;11.10;61.25;95043.69;4237269;27;20088;-69
2024/02/29 01:19:00;;;;;;;23.35;15.07;;;;;;;11.05;61.37;95042.34;4241261;27;20515;-68
2024/02/29 01:21:03;;;;;;;25.38;14.07;;;;;;;11.04;60.86;95043.34;4239695;27;20046;-69
2024/02/29 01:23:05;;;;;;;25.27;14.77;;;;;;;11.03;61.10;95046.94;4237561;28;20126;-68
2024/02/29 01:25:08;;;;;;;24.70;15.27;;;;;;;11.06;61.02;95046.63;4239096;28;20098;-69
2024/02/29 01:27:10;;;;;;;24.88;15.75;;;;;;;11.04;61.20;95051.19;4235181;28;20049;-69
2024/02/29 01:29:11;;;;;;;23.55;14.32;;;;;;;11.01;61.44;95050.66;4214993;28;20340;-68
2024/02/29 01:31:14;;;;;;;26.48;15.15;;;;;;;11.00;61.14;95044.63;4236357;28;20074;-68
2024/02/29 01:33:16;;;;;;;23.80;14.63;;;;;;;11.00;61.21;95035.94;4231739;28;20051;-70
2024/02/29 01:35:18;;;;;;;23.05;14.45;;;;;;;11.02;61.38;95041.84;4242528;28;20044;-69
2024/02/29 01:37:20;;;;;;;25.75;14.98;;;;;;;11.02;61.51;95040.03;4242834;28;20047;-70
2024/02/29 01:39:21;;;;;;;26.67;14.27;;;;;;;11.00;61.39;95036.75;4241961;28;20052;-68
2024/02/29 01:41:23;;;;;;;21.77;15.10;;;;;;;10.98;61.25;95036.06;4240509;28;20043;-70
2024/02/29 01:43:25;;;;;;;19.83;14.00;;;;;;;10.97;61.07;95042.31;4238475;28;20418;-70
2024/02/29 01:45:27;;;;;;;22.80;15.05;;;;;;;10.96;61.08;95038.03;4239284;27;20077;-68
2024/02/29 01:47:29;;;;;;;22.42;15.35;;;;;;;10.94;61.26;95031.28;4246491;27;20039;-69
2024/02/29 01:49:31;;;;;;;19.98;14.73;;;;;;;10.92;61.18;95028.81;4246191;27;20058;-68
2024/02/29 01:51:33;;;;;;;22.23;14.55;;;;;;;10.93;61.45;95024.41;4239002;27;20047;-69
2024/02/29 01:53:35;;;;;;;21.10;14.02;;;;;;;10.92;61.31;95026.19;4210210;28;20408;-71
2024/02/29 01:55:37;;;;;;;22.25;14.68;;;;;;;10.92;60.94;95031.44;4227813;27;20043;-72
2024/02/29 01:57:39;;;;;;;24.83;15.48;;;;;;;10.86;61.21;95025.03;4226047;28;20395;-69
2024/02/29 01:59:42;;;;;;;24.77;15.70;;;;;;;10.84;61.40;95031.38;4224487;28;20216;-69
2024/02/29 02:01:44;;;;;;;24.00;15.20;;;;;;;10.80;61.91;95030.88;4245734;27;20047;-71
2024/02/29 02:03:46;;;;;;;22.88;14.95;;;;;;;10.78;61.73;95034.63;4245129;27;20059;-70
2024/02/29 02:05:48;;;;;;;21.70;13.73;;;;;;;10.75;61.48;95043.59;4240915;27;20139;-69
2024/02/29 02:07:51;;;;;;;20.95;14.48;;;;;;;10.74;61.97;95041.16;4245107;27;20049;-71
2024/02/29 02:09:53;;;;;;;20.70;14.82;;;;;;;10.77;61.80;95043.44;4246170;27;20054;-70
2024/02/29 02:11:56;;;;;;;22.33;14.35;;;;;;;10.77;61.58;95030.34;4222660;28;20051;-69
2024/02/29 02:13:57;;;;;;;26.00;14.33;;;;;;;10.71;61.99;95041.44;4238154;27;20073;-68
2024/02/29 02:16:00;;;;;;;22.70;15.63;;;;;;;10.58;61.95;95036.56;4243864;27;20658;-67
2024/02/29 02:18:02;;;;;;;22.05;14.27;;;;;;;10.59;62.73;95033.81;4245092;27;20051;-70
2024/02/29 02:20:07;;;;;;;22.73;14.43;;;;;;;10.53;62.40;95038.84;4245817;27;20085;-69
2024/02/29 02:22:09;;;;;;;24.17;14.38;;;;;;;10.45;63.25;95035.19;4226834;28;20174;-70
2024/02/29 02:24:11;;;;;;;21.88;14.48;;;;;;;10.50;63.03;95047.00;4240488;27;20082;-69
2024/02/29 02:26:13;;;;;;;24.42;14.68;;;;;;;10.54;62.44;95046.56;4237430;27;20047;-69
2024/02/29 02:28:15;;;;;;;22.92;16.08;;;;;;;10.57;62.63;95048.84;4226775;28;20036;-69
2024/02/29 02:30:17;;;;;;;21.58;15.02;;;;;;;10.59;62.31;95044.28;4237349;27;20078;-70
2024/02/29 02:32:20;;;;;;;20.48;14.20;;;;;;;10.61;62.67;95046.78;4236322;27;20414;-70
2024/02/29 02:34:22;;;;;;;20.40;14.30;;;;;;;10.58;62.27;95037.41;4241897;27;20055;-70
2024/02/29 02:36:25;;;;;;;28.13;16.60;;;;;;;10.54;62.31;95033.44;4244583;27;20061;-70
2024/02/29 02:38:27;;;;;;;22.65;15.38;;;;;;;10.50;62.42;95039.16;4244987;27;20123;-68
2024/02/29 02:40:29;;;;;;;26.55;16.65;;;;;;;10.49;62.98;95035.69;4233937;27;20120;-71
2024/02/29 02:42:31;;;;;;;26.92;16.67;;;;;;;10.51;62.65;95044.22;4225702;28;20044;-68
2024/02/29 02:44:33;;;;;;;26.60;16.33;;;;;;;10.51;62.41;95046.00;4238648;27;20059;-70
2024/02/29 02:46:35;;;;;;;25.70;15.90;;;;;;;10.52;62.46;95039.78;4245022;27;20134;-67
2024/02/29 02:48:37;;;;;;;27.33;16.80;;;;;;;10.54;62.43;95035.22;4224587;28;20122;-69
2024/02/29 02:50:39;;;;;;;25.15;15.68;;;;;;;10.58;62.44;95037.41;4242309;27;20477;-68
2024/02/29 02:52:40;;;;;;;24.17;16.08;;;;;;;10.57;62.31;95043.63;4239310;27;20426;-69
2024/02/29 02:54:42;;;;;;;20.33;15.25;;;;;;;10.57;62.70;95030.50;4243012;27;20058;-69
2024/02/29 02:56:44;;;;;;;25.33;15.15;;;;;;;10.56;62.20;95034.13;4238287;27;20150;-69
2024/02/29 02:58:46;;;;;;;22.90;15.80;;;;;;;10.51;62.55;95025.88;4239556;27;20139;-70
2024/02/29 03:00:48;;;;;;;22.77;15.95;;;;;;;10.46;62.38;95033.38;4244405;27;20047;-68
2024/02/29 03:02:51;;;;;;;24.65;15.27;;;;;;;10.45;62.74;95034.34;4226102;28;20083;-70
2024/02/29 03:04:53;;;;;;;23.25;14.93;;;;;;;10.43;62.76;95033.66;4245226;27;20065;-70
2024/02/29 03:06:54;;;;;;;21.38;15.90;;;;;;;10.42;62.60;95035.47;4230462;27;20531;-71
2024/02/29 03:08:56;;;;;;;23.73;15.13;;;;;;;10.41;63.11;95032.97;4238117;27;20096;-70
2024/02/29 03:10:58;;;;;;;23.85;15.45;;;;;;;10.38;63.09;95028.06;4242596;27;20047;-69
2024/02/29 03:13:00;;;;;;;23.17;15.68;;;;;;;10.40;62.28;95028.72;4220359;28;20044;-71
2024/02/29 03:15:02;;;;;;;21.27;15.85;;;;;;;10.33;62.94;95022.44;4244237;27;20098;-69
2024/02/29 03:17:05;;;;;;;22.30;14.73;;;;;;;10.21;63.54;95019.19;4225661;28;20070;-70
2024/02/29 03:19:07;;;;;;;28.13;15.98;;;;;;;10.15;63.60;95020.63;4244964;27;20563;-69
2024/02/29 03:21:12;;;;;;;23.85;15.07;;;;;;;10.13;63.92;95022.56;4241521;27;20515;-70
2024/02/29 03:23:13;;;;;;;22.17;15.75;;;;;;;10.14;63.81;95015.53;4241576;27;20067;-70
2024/02/29 03:25:16;;;;;;;26.67;16.08;;;;;;;10.13;63.28;95017.31;4226373;28;20058;-70
2024/02/29 03:27:18;;;;;;;22.63;15.40;;;;;;;10.11;63.75;95028.91;4241601;27;20055;-71
2024/02/29 03:29:20;;;;;;;23.92;14.40;;;;;;;9.84;64.11;95020.94;4233794;27;20049;-70
2024/02/29 03:31:22;;;;;;;24.38;15.63;;;;;;;9.60;64.62;95020.66;4243684;27;20054;-70
2024/02/29 03:33:24;;;;;;;24.77;15.68;;;;;;;9.23;66.08;95013.66;4233846;27;20528;-68
2024/02/29 03:35:26;;;;;;;21.27;15.02;;;;;;;9.18;66.96;95008.00;4244458;27;20035;-69
2024/02/29 03:37:28;;;;;;;24.45;15.43;;;;;;;9.26;66.05;95008.13;4235246;27;20050;-69
2024/02/29 03:39:30;;;;;;;22.98;14.73;;;;;;;9.40;66.06;95012.91;4240718;27;20043;-72
2024/02/29 03:41:32;;;;;;;18.17;13.18;;;;;;;9.54;65.57;95011.59;4217062;28;20050;-70
2024/02/29 03:43:37;;;;;;;24.60;14.13;;;;;;;9.63;65.09;95010.72;4226005;28;20055;-71
2024/02/29 03:45:38;;;;;;;21.83;13.98;;;;;;;9.75;64.82;95013.16;4242679;27;20047;-71
2024/02/29 03:47:40;;;;;;;20.75;14.23;;;;;;;9.82;64.62;95015.03;4236889;27;20142;-70
2024/02/29 03:49:43;;;;;;;20.05;14.35;;;;;;;9.90;64.69;95005.63;4240575;27;20051;-70
2024/02/29 03:51:44;;;;;;;20.70;13.88;;;;;;;9.94;63.94;95010.41;4237787;27;20142;-72
2024/02/29 03:53:46;;;;;;;21.17;13.38;;;;;;;9.99;63.99;95012.59;4238033;27;20086;-70
2024/02/29 03:55:49;;;;;;;23.63;14.00;;;;;;;10.01;64.03;95014.09;4233870;27;20050;-70
2024/02/29 03:57:51;;;;;;;22.40;14.25;;;;;;;10.05;63.34;94998.91;4241020;27;20055;-70
2024/02/29 03:59:53;;;;;;;22.90;14.48;;;;;;;10.10;63.23;95006.31;4243973;27;20115;-69
2024/02/29 04:01:55;;;;;;;26.20;15.65;;;;;;;10.08;63.67;95016.13;4236465;27;20059;-71
2024/02/29 04:03:57;;;;;;;22.80;15.38;;;;;;;10.09;63.46;95012.50;4238030;27;20043;-70
2024/02/29 04:05:59;;;;;;;19.98;13.98;;;;;;;10.10;63.95;95017.59;4237497;27;20652;-69
2024/02/29 04:08:03;;;;;;;22.13;14.52;;;;;;;10.10;63.34;95008.94;4235403;27;20138;-68
2024/02/29 04:10:05;;;;;;;22.35;14.30;;;;;;;10.11;63.52;95008.78;4237332;27;20073;-70
2024/02/29 04:12:07;;;;;;;19.08;14.07;;;;;;;10.12;63.41;94999.97;4224736;28;20044;-72
2024/02/29 04:14:09;;;;;;;18.52;14.32;;;;;;;10.15;63.56;94999.69;4236563;27;20522;-68
2024/02/29 04:16:12;;;;;;;23.52;14.18;;;;;;;10.13;63.61;94993.78;4243763;27;20511;-69
2024/02/29 04:18:14;;;;;;;24.65;15.57;;;;;;;10.13;63.44;94996.38;4239107;27;20063;-68
2024/02/29 04:20:16;;;;;;;23.35;15.70;;;;;;;10.11;64.02;94995.72;4243857;27;20136;-72
2024/02/29 04:22:18;;;;;;;23.10;16.55;;;;;;;10.13;63.58;94999.00;4242936;27;20613;-69
2024/02/29 04:24:20;;;;;;;24.92;16.65;;;;;;;10.14;63.55;95008.50;4219486;28;20502;-70
2024/02/29 04:26:24;;;;;;;23.02;15.70;;;;;;;10.11;64.05;95008.78;4222138;28;20129;-72
2024/02/29 04:28:26;;;;;;;23.20;16.13;;;;;;;10.03;63.47;95011.31;4240413;27;20043;-72
2024/02/29 04:30:28;;;;;;;26.20;16.45;;;;;;;10.02;64.22;95004.44;4239453;27;20046;-72
2024/02/29 04:32:30;;;;;;;23.42;16.55;;;;;;;10.03;64.42;95006.91;4233447;27;20054;-69
2024/02/29 04:34:32;;;;;;;20.52;15.25;;;;;;;10.10;63.92;95001.91;4217402;28;20043;-70
2024/02/29 04:36:35;;;;;;;24.08;15.23;;;;;;;10.15;64.17;95004.91;4243155;27;20158;-69
2024/02/29 04:38:37;;;;;;;20.45;16.35;;;;;;;10.22;63.82;94998.09;4243133;27;20047;-70
2024/02/29 04:40:38;;;;;;;24.38;15.43;;;;;;;10.22;63.29;94995.47;4243399;27;20070;-69
2024/02/29 04:42:40;;;;;;;29.73;16.27;;;;;;;10.15;63.52;94997.06;4223480;28;21432;-69
2024/02/29 04:44:43;;;;;;;27.48;17.05;;;;;;;10.05;64.10;94993.69;4221481;28;20131;-69
2024/02/29 04:46:44;;;;;;;27.27;16.10;;;;;;;10.03;63.91;94995.63;4220820;28;20055;-68
2024/02/29 04:48:46;;;;;;;23.77;15.82;;;;;;;10.03;64.36;94998.25;4241498;27;20073;-70
2024/02/29 04:50:49;;;;;;;23.38;15.63;;;;;;;10.00;63.68;95001.13;4237695;27;20047;-68
2024/02/29 04:52:50;;;;;;;51.60;17.67;;;;;;;9.97;63.87;94996.22;4241645;27;20654;-69
2024/02/29 04:54:52;;;;;;;28.92;15.80;;;;;;;9.92;63.61;94998.47;4237285;27;20114;-70
2024/02/29 04:56:54;;;;;;;38.90;15.45;;;;;;;9.77;64.22;94995.50;4213236;28;20123;-69
2024/02/29 04:58:56;;;;;;;27.25;15.07;;;;;;;9.70;64.99;94997.91;4237248;27;20537;-71
2024/02/29 05:00:58;;;;;;;28.83;16.08;;;;;;;9.70;64.99;94995.28;4217708;28;20707;-70
2024/02/29 05:03:00;;;;;;;27.73;14.73;;;;;;;9.64;65.26;94991.44;4223012;28;20145;-72
2024/02/29 05:05:06;;;;;;;35.35;14.88;;;;;;;9.67;65.19;94999.97;4234148;27;20155;-71
2024/02/29 05:07:08;;;;;;;28.83;14.90;;;;;;;9.71;64.78;95001.34;4222940;28;20127;-71
2024/02/29 05:09:12;;;;;;;26.55;16.70;;;;;;;9.74;65.04;95001.84;4237375;27;20043;-71
2024/02/29 05:11:15;;;;;;;22.40;14.98;;;;;;;9.80;64.80;95003.88;4224107;28;20062;-71
2024/02/29 05:13:18;;;;;;;23.90;15.80;;;;;;;9.86;64.37;94994.63;4218520;28;20035;-71
2024/02/29 05:15:20;;;;;;;28.92;16.90;;;;;;;9.87;64.26;94998.06;4209252;28;20071;-71
2024/02/29 05:17:22;;;;;;;24.15;15.82;;;;;;;9.88;63.90;94997.91;4235967;27;20126;-70
2024/02/29 05:19:24;;;;;;;31.10;16.52;;;;;;;9.86;64.77;94989.41;4241428;27;20047;-70
2024/02/29 05:21:26;;;;;;;26.17;16.10;;;;;;;9.92;64.51;95001.06;4239825;27;20514;-69
2024/02/29 05:23:28;;;;;;;30.98;16.95;;;;;;;9.91;64.34;94995.00;4236754;27;20052;-68
2024/02/29 05:25:30;;;;;;;23.90;17.17;;;;;;;9.93;64.88;95008.75;4231004;28;20487;-69
2024/02/29 05:27:33;;;;;;;31.58;18.30;;;;;;;9.79;64.77;95004.03;4239811;28;20039;-70
2024/02/29 05:29:35;;;;;;;33.97;18.07;;;;;;;9.76;65.38;95007.75;4237373;28;20053;-70
2024/02/29 05:31:37;;;;;;;31.45;18.77;;;;;;;9.68;65.10;95018.16;4234236;28;20406;-71
2024/02/29 05:33:41;;;;;;;33.10;20.55;;;;;;;9.53;65.50;95009.09;4223063;28;20048;-70
2024/02/29 05:35:48;;;;;;;30.88;20.75;;;;;;;9.46;66.11;95008.06;4237019;28;20504;-71
2024/02/29 05:37:50;;;;;;;35.38;22.23;;;;;;;9.37;65.89;95015.78;4231588;28;20392;-72
2024/02/29 05:39:51;;;;;;;34.22;21.30;;;;;;;9.40;66.17;95009.47;4232168;28;20135;-69
2024/02/29 05:41:55;;;;;;;30.05;20.52;;;;;;;9.51;66.60;95022.34;4221489;28;20052;-71
2024/02/29 05:43:59;;;;;;;38.80;19.38;;;;;;;9.63;65.51;95022.97;4242487;28;20134;-70
2024/02/29 05:46:00;;;;;;;36.72;21.23;;;;;;;9.49;65.93;95023.47;4230203;28;20055;-70
2024/02/29 05:48:04;;;;;;;32.00;21.48;;;;;;;9.37;66.33;95030.66;4240701;28;20054;-71
2024/02/29 05:50:06;;;;;;;34.95;21.60;;;;;;;9.38;66.45;95033.13;4218482;28;20097;-71
2024/02/29 05:52:08;;;;;;;38.40;23.13;;;;;;;9.46;66.65;95037.63;4223728;28;20542;-71
2024/02/29 05:54:10;;;;;;;47.25;23.75;;;;;;;9.48;66.70;95042.72;4233089;28;20047;-70
2024/02/29 05:56:13;;;;;;;46.03;22.80;;;;;;;9.54;66.52;95036.94;4237966;28;20115;-70
2024/02/29 05:58:15;;;;;;;32.65;21.55;;;;;;;9.66;66.21;95024.47;4239955;28;20458;-71
2024/02/29 06:00:17;;;;;;;30.00;21.35;;;;;;;9.76;65.56;95033.09;4237724;28;20138;-71
2024/02/29 06:02:19;;;;;;;32.00;21.52;;;;;;;9.82;65.25;95025.47;4242375;28;20111;-68
2024/02/29 06:04:21;;;;;;;34.05;20.45;;;;;;;9.81;65.64;95028.28;4242575;28;20561;-72
2024/02/29 06:06:23;;;;;;;31.75;19.92;;;;;;;9.80;65.47;95027.44;4240366;28;20063;-69
2024/02/29 06:08:25;;;;;;;35.85;19.23;;;;;;;9.67;65.10;95032.19;4236520;28;20047;-70
2024/02/29 06:10:27;;;;;;;29.63;19.52;;;;;;;9.66;65.92;95022.69;4242815;28;20103;-69
2024/02/29 06:12:30;;;;;;;29.90;18.38;;;;;;;9.61;65.96;95023.13;4241448;28;20383;-70
2024/02/29 06:14:32;;;;;;;31.70;19.67;;;;;;;9.68;65.90;95028.59;4238817;28;20403;-69
2024/02/29 06:16:34;;;;;;;30.67;19.98;;;;;;;9.72;66.22;95022.13;4238075;28;20391;-72
2024/02/29 06:18:38;;;;;;;26.85;19.10;;;;;;;9.76;66.26;95020.84;4233323;28;20051;-71
2024/02/29 06:20:40;;;;;;;29.10;19.50;;;;;;;9.85;65.57;95029.59;4242905;28;20058;-71
2024/02/29 06:22:42;;;;;;;29.58;18.98;;;;;;;9.95;64.91;95019.09;4236238;28;20067;-70
2024/02/29 06:24:44;;;;;;;31.60;19.75;;;;;;;10.02;65.23;95025.38;4224748;28;20153;-72
2024/02/29 06:26:46;;;;;;;29.80;19.15;;;;;;;10.10;65.01;95024.66;4206714;28;20052;-70
2024/02/29 06:28:48;;;;;;;38.45;18.67;;;;;;;10.15;64.88;95025.84;4227086;28;20415;-71
2024/02/29 06:30:50;;;;;;;34.20;21.27;;;;;;;10.10;64.35;95020.22;4238917;27;20047;-71
2024/02/29 06:32:52;;;;;;;36.17;19.55;;;;;;;10.09;64.81;95021.22;4240863;27;20074;-72
2024/02/29 06:34:54;;;;;;;34.53;20.05;;;;;;;10.15;64.26;95020.63;4241988;27;20044;-71
2024/02/29 06:36:55;;;;;;;30.25;20.55;;;;;;;10.23;64.46;95014.63;4231837;27;20049;-69
2024/02/29 06:38:57;;;;;;;35.22;18.95;;;;;;;10.34;64.35;95021.47;4237459;27;20098;-67
2024/02/29 06:40:59;;;;;;;31.83;18.63;;;;;;;10.39;63.84;95022.69;4237610;27;20077;-68
2024/02/29 06:43:01;;;;;;;32.92;18.45;;;;;;;10.41;63.79;95031.22;4239497;27;20050;-70
2024/02/29 06:45:07;;;;;;;37.55;22.40;;;;;;;10.18;64.02;95033.41;4240591;27;20047;-71
2024/02/29 06:47:08;;;;;;;46.35;24.67;;;;;;;9.99;64.63;95025.69;4241500;27;20440;-70
2024/02/29 06:49:10;;;;;;;36.58;24.67;;;;;;;10.01;64.85;95024.56;4245244;27;20139;-68
2024/02/29 06:51:12;;;;;;;51.70;25.90;;;;;;;10.09;64.75;95031.69;4241849;27;20062;-68
2024/02/29 06:53:14;;;;;;;39.60;27.05;;;;;;;10.07;64.46;95033.63;4234392;27;20120;-69
2024/02/29 06:55:16;;;;;;;51.25;27.15;;;;;;;10.07;64.61;95033.63;4220482;28;20480;-72
2024/02/29 06:57:18;;;;;;;48.88;28.67;;;;;;;9.99;64.42;95036.16;4234682;27;20055;-72
2024/02/29 06:59:20;;;;;;;59.17;28.75;;;;;;;9.67;65.43;95031.38;4244129;27;20521;-71
2024/02/29 07:01:23;;;;;;;43.13;29.23;;;;;;;9.61;65.66;95032.75;4222789;28;20139;-70
2024/02/29 07:03:25;;;;;;;40.13;27.50;;;;;;;9.68;66.05;95033.84;4242521;27;20356;-71
2024/02/29 07:05:27;;;;;;;58.25;28.95;;;;;;;9.83;66.35;95029.75;4222626;28;20066;-72
2024/02/29 07:07:29;;;;;;;50.83;27.80;;;;;;;9.95;65.46;95040.03;4239751;27;20066;-73
2024/02/29 07:09:31;;;;;;;43.17;29.95;;;;;;;10.09;64.58;95030.84;4241772;27;20058;-71
2024/02/29 07:11:33;;;;;;;52.50;30.30;;;;;;;10.16;64.73;95030.09;4241094;27;20188;-71
2024/02/29 07:13:35;;;;;;;44.92;27.73;;;;;;;10.30;64.53;95038.44;4240094;27;20494;-71
2024/02/29 07:15:37;;;;;;;49.10;28.60;;;;;;;10.40;63.49;95039.19;4236353;27;20440;-70
2024/02/29 07:17:39;;;;;;;48.40;29.45;;;;;;;10.43;63.46;95036.28;4239938;27;20469;-68
2024/02/29 07:19:40;;;;;;;50.55;33.25;;;;;;;10.30;63.75;95034.03;4224181;28;20507;-69
2024/02/29 07:21:43;;;;;;;61.08;32.67;;;;;;;10.13;64.29;95026.94;4238966;27;20388;-70
2024/02/29 07:23:45;;;;;;;53.50;32.33;;;;;;;10.05;64.61;95025.09;4240318;27;20543;-70
2024/02/29 07:25:46;;;;;;;57.95;34.03;;;;;;;10.04;64.79;95020.81;4235677;27;20051;-70
2024/02/29 07:27:49;;;;;;;61.50;36.70;;;;;;;10.13;64.92;95016.47;4242477;27;20138;-70
2024/02/29 07:29:51;;;;;;;83.25;38.20;;;;;;;10.15;64.82;95018.00;4235694;27;20154;-70
2024/02/29 07:31:53;;;;;;;65.07;35.10;;;;;;;10.20;64.72;95013.13;4244210;27;20483;-72
2024/02/29 07:33:55;;;;;;;62.00;35.10;;;;;;;10.19;64.55;95011.47;4237159;27;20046;-71
2024/02/29 07:35:57;;;;;;;57.38;33.38;;;;;;;10.21;64.97;95003.47;4236478;27;20083;-71
2024/02/29 07:38:00;;;;;;;60.40;32.35;;;;;;;10.22;64.71;95011.19;4242784;27;20126;-71
2024/02/29 07:40:02;;;;;;;54.67;30.70;;;;;;;10.27;64.95;95013.34;4236650;27;20127;-70
2024/02/29 07:42:04;;;;;;;50.67;29.02;;;;;;;10.33;64.67;95011.97;4240225;27;20464;-72
2024/02/29 07:44:06;;;;;;;48.08;29.58;;;;;;;10.15;64.40;95018.00;4228433;27;20484;-72
2024/02/29 07:46:09;;;;;;;45.03;30.70;;;;;;;10.03;65.06;95014.75;4230416;27;20051;-71
2024/02/29 07:48:11;;;;;;;60.72;31.02;;;;;;;9.94;65.21;95018.28;4243966;27;20051;-70
2024/02/29 07:50:12;;;;;;;61.90;30.48;;;;;;;9.87;65.45;95008.53;4243760;27;20046;-71
2024/02/29 07:52:15;;;;;;;43.70;28.65;;;;;;;9.92;65.98;95014.97;4235528;27;20083;-70
2024/02/29 07:54:17;;;;;;;54.70;29.27;;;;;;;10.01;66.11;95016.69;4225296;28;20367;-70
2024/02/29 07:56:19;;;;;;;50.17;30.83;;;;;;;10.05;65.61;95010.19;4242774;27;20115;-70
2024/02/29 07:58:21;;;;;;;48.60;30.45;;;;;;;10.09;65.47;95005.50;4216578;28;20043;-70
2024/02/29 08:00:24;;;;;;;55.00;29.27;;;;;;;10.17;65.18;95002.13;4239766;27;20403;-68
2024/02/29 08:02:26;;;;;;;51.63;31.10;;;;;;;10.20;65.11;95013.13;4242811;27;20467;-72
2024/02/29 08:04:27;;;;;;;55.00;30.13;;;;;;;10.31;64.94;95000.84;4243828;27;20078;-71
2024/02/29 08:06:29;;;;;;;54.42;31.20;;;;;;;10.38;65.37;95004.47;4240451;27;20048;-71
2024/02/29 08:08:31;;;;;;;51.92;31.75;;;;;;;10.38;65.11;95002.69;4242777;27;20051;-70
2024/02/29 08:10:33;;;;;;;51.95;30.92;;;;;;;10.45;64.85;95000.28;4224433;28;20048;-71
2024/02/29 08:12:35;;;;;;;61.03;32.70;;;;;;;10.52;64.37;94992.63;4240877;27;20400;-70
2024/02/29 08:14:37;;;;;;;58.83;32.47;;;;;;;10.65;64.25;94993.91;4239576;27;20417;-72
2024/02/29 08:16:38;;;;;;;59.83;34.38;;;;;;;10.73;64.31;94993.13;4244058;27;20053;-71
2024/02/29 08:18:40;;;;;;;56.50;33.17;;;;;;;10.82;63.83;94991.41;4225325;28;20145;-70
2024/02/29 08:20:45;;;;;;;67.72;32.35;;;;;;;10.86;63.21;94987.50;4243759;27;20035;-70
2024/02/29 08:22:53;;;;;;;58.55;33.08;;;;;;;10.69;63.58;94985.72;4243696;27;20050;-71
2024/02/29 08:24:57;;;;;;;46.25;30.55;;;;;;;10.33;64.14;94976.13;4234833;27;20056;-69
2024/02/29 08:27:02;;;;;;;48.13;30.45;;;;;;;10.21;64.96;94980.72;4239123;27;20099;-72
2024/02/29 08:29:03;;;;;;;56.65;34.13;;;;;;;10.16;65.53;94976.94;4243083;27;20061;-72
2024/02/29 08:31:06;;;;;;;72.03;35.05;;;;;;;10.09;65.87;94968.84;4239374;27;20047;-73
2024/02/29 08:33:07;;;;;;;79.57;40.85;;;;;;;10.03;65.80;94970.25;4243799;27;20412;-71
2024/02/29 08:35:10;;;;;;;77.90;41.03;;;;;;;10.07;66.03;94968.19;4240897;27;20100;-72
2024/02/29 08:37:12;;;;;;;60.58;33.42;;;;;;;10.08;65.49;94967.19;4239667;27;20210;-71
2024/02/29 08:39:14;;;;;;;71.57;39.33;;;;;;;9.91;66.53;94949.69;4241860;27;20086;-69
2024/02/29 08:41:17;;;;;;;60.13;36.42;;;;;;;9.89;66.91;94954.25;4217476;28;20082;-69
2024/02/29 08:43:21;;;;;;;52.97;33.00;;;;;;;9.77;66.96;94951.84;4239076;27;20081;-70
2024/02/29 08:45:23;;;;;;;54.83;31.98;;;;;;;9.91;67.37;94955.75;4237957;27;20384;-70
2024/02/29 08:47:25;;;;;;;58.42;35.47;;;;;;;10.08;67.11;94951.50;4243267;27;20047;-70
2024/02/29 08:49:27;;;;;;;54.97;32.50;;;;;;;10.30;66.85;94944.19;4221149;28;20403;-72
2024/02/29 08:51:29;;;;;;;56.67;30.38;;;;;;;10.46;66.10;94944.31;4238068;27;20063;-71
2024/02/29 08:53:31;;;;;;;48.88;30.67;;;;;;;10.63;65.85;94951.31;4234928;27;20104;-71
2024/02/29 08:55:33;;;;;;;53.35;30.33;;;;;;;10.80;64.93;94956.69;4210907;28;20056;-71
2024/02/29 08:57:35;;;;;;;48.80;28.55;;;;;;;10.87;64.59;94949.84;4238166;27;20066;-70
2024/02/29 08:59:38;;;;;;;44.88;28.67;;;;;;;10.95;64.54;94957.75;4242965;27;20141;-72
2024/02/29 09:01:40;;;;;;;49.83;27.00;;;;;;;11.04;64.23;94962.06;4212767;28;20051;-71
2024/02/29 09:03:42;;;;;;;45.53;27.95;;;;;;;11.18;64.21;94965.88;4240377;27;20054;-71
2024/02/29 09:05:44;;;;;;;51.17;28.33;;;;;;;11.21;63.95;94956.91;4243880;27;20387;-72
2024/02/29 09:07:46;;;;;;;40.92;26.35;;;;;;;11.21;63.89;94955.09;4222871;28;20053;-70
2024/02/29 09:09:48;;;;;;;38.10;24.58;;;;;;;11.27;63.60;94957.09;4237777;27;20126;-73
2024/02/29 09:11:50;;;;;;;43.25;25.60;;;;;;;11.35;63.62;94965.97;4221521;28;20124;-72
2024/02/29 09:13:52;;;;;;;42.63;25.10;;;;;;;11.42;63.29;94961.75;4233593;27;20597;-71
2024/02/29 09:15:54;;;;;;;43.22;23.98;;;;;;;11.45;62.90;94957.00;4228353;27;20055;-71
2024/02/29 09:17:56;;;;;;;38.53;24.13;;;;;;;11.43;63.00;94966.03;4242443;27;20206;-71
2024/02/29 09:19:58;;;;;;;37.50;24.10;;;;;;;11.50;63.03;94963.59;4227757;28;20077;-72
2024/02/29 09:22:00;;;;;;;36.25;23.85;;;;;;;11.59;62.42;94958.19;4233647;27;20084;-71
2024/02/29 09:24:02;;;;;;;36.15;23.90;;;;;;;11.66;61.89;94964.47;4223315;28;20592;-71